Terminal Aerodrome Forecast
Issued by NWS

Home | Current Version | Previous Version | Text Only | Print | Product List | Glossary On
Versions: 1 2 3 4 5 6 7 8 9 10 11 12 13 14 15 16
000
FTUS44 KCRP 111700
TAFALI
TAF
KALI 111732Z 1118/1218 15016G24KT P6SM SCT025 BKN150
     FM120100 14011KT P6SM FEW025 BKN150
     FM120700 12004KT P6SM SCT010 BKN250
      TEMPO 1209/1213 BKN010
     FM121400 15011KT P6SM SCT025=

USA.gov is the U.S. government's official web portal to all federal, state and local government web resources and services.